createdAt,value
2018-05-12T00:00:06.284Z,0.00
2018-05-12T00:01:06.157Z,0.00
2018-05-12T00:02:06.147Z,0.00
2018-05-12T00:03:06.205Z,0.00
2018-05-12T00:04:06.090Z,0.00
2018-05-12T00:05:06.219Z,0.00
2018-05-12T00:06:06.049Z,0.00
2018-05-12T00:07:06.130Z,0.00
2018-05-12T00:08:06.003Z,0.00
2018-05-12T00:09:06.040Z,0.00
2018-05-12T00:10:05.961Z,0.00
2018-05-12T00:11:06.053Z,0.00
2018-05-12T00:12:05.917Z,0.00
2018-05-12T00:13:05.963Z,0.00
2018-05-12T00:14:05.873Z,0.00
2018-05-12T00:15:06.018Z,0.00
2018-05-12T00:16:05.831Z,0.00
2018-05-12T00:17:05.888Z,0.00
2018-05-12T00:18:05.787Z,0.00
2018-05-12T00:19:05.904Z,0.00
2018-05-12T00:20:05.739Z,0.00
2018-05-12T00:21:05.818Z,0.00
2018-05-12T00:22:05.701Z,0.00
2018-05-12T00:23:05.830Z,0.00
2018-05-12T00:24:05.652Z,0.00
2018-05-12T00:25:05.742Z,0.00
2018-05-12T00:26:05.609Z,0.00
2018-05-12T00:27:05.757Z,0.00
2018-05-12T00:28:05.564Z,0.00
2018-05-12T00:29:05.668Z,0.00
2018-05-12T00:30:05.519Z,0.00
2018-05-12T00:31:05.579Z,0.00
2018-05-12T00:32:05.476Z,0.00
2018-05-12T00:33:05.590Z,0.00
2018-05-12T00:34:05.441Z,0.00
2018-05-12T00:35:05.504Z,0.00
2018-05-12T00:36:05.390Z,0.00
2018-05-12T00:37:05.518Z,0.00
2018-05-12T00:38:05.350Z,0.00
2018-05-12T00:39:05.433Z,0.00
2018-05-12T00:40:05.303Z,0.00
2018-05-12T00:41:05.446Z,0.00
2018-05-12T00:42:05.252Z,0.00
2018-05-12T00:43:05.438Z,0.00
2018-05-12T00:44:05.214Z,0.00
2018-05-12T00:45:05.374Z,0.00
2018-05-12T00:46:05.174Z,0.00
2018-05-12T00:47:05.283Z,0.00
2018-05-12T00:48:05.126Z,0.00
2018-05-12T00:49:05.195Z,0.00
2018-05-12T00:50:05.084Z,0.00
2018-05-12T00:51:05.208Z,0.00
2018-05-12T00:52:05.041Z,0.00
2018-05-12T00:53:05.119Z,0.00
2018-05-12T00:54:04.992Z,0.00
2018-05-12T00:55:05.129Z,0.00
2018-05-12T00:56:04.946Z,0.00
2018-05-12T00:57:05.047Z,0.00
2018-05-12T00:58:04.905Z,0.00
2018-05-12T00:59:05.059Z,0.00
2018-05-12T01:00:04.863Z,0.00
2018-05-12T01:01:04.969Z,0.00
2018-05-12T01:02:04.813Z,0.00
2018-05-12T01:03:04.985Z,0.00
2018-05-12T01:04:04.771Z,0.00
2018-05-12T01:05:04.898Z,0.00
2018-05-12T01:06:04.726Z,0.00
2018-05-12T01:07:04.809Z,0.00
2018-05-12T01:08:04.680Z,0.00
2018-05-12T01:09:04.826Z,0.00
2018-05-12T01:10:04.637Z,0.00
2018-05-12T01:11:11.836Z,0.00
2018-05-12T01:12:57.614Z,0.00
2018-05-12T01:13:57.528Z,0.00
2018-05-12T01:15:50.471Z,0.00
2018-05-12T01:16:50.377Z,0.00
2018-05-12T01:18:43.350Z,0.00
2018-05-12T01:19:43.228Z,0.00
2018-05-12T01:21:36.171Z,0.00
2018-05-12T01:22:36.077Z,0.00
2018-05-12T01:24:29.021Z,0.00
2018-05-12T01:25:28.928Z,0.00
2018-05-12T01:27:21.872Z,0.00
2018-05-12T01:28:21.780Z,0.00
2018-05-12T01:30:14.729Z,0.00
2018-05-12T01:31:14.645Z,0.00
2018-05-12T01:33:07.570Z,0.00
2018-05-12T01:34:07.483Z,0.00
2018-05-12T01:36:00.421Z,0.00
2018-05-12T01:37:00.334Z,0.00
2018-05-12T01:38:53.524Z,0.00
2018-05-12T01:39:53.241Z,0.00
2018-05-12T01:41:46.387Z,0.00
2018-05-12T01:42:46.187Z,0.00
2018-05-12T01:44:39.355Z,0.00
2018-05-12T01:45:39.143Z,0.00
2018-05-12T01:47:32.301Z,0.00
2018-05-12T01:48:32.097Z,0.00
2018-05-12T01:50:25.258Z,0.00
2018-05-12T01:51:25.057Z,0.00
2018-05-12T01:53:18.069Z,0.00
2018-05-12T01:54:18.083Z,0.00
2018-05-12T01:56:11.170Z,0.00
2018-05-12T01:57:11.141Z,0.00
2018-05-12T01:59:04.122Z,0.00
2018-05-12T02:00:03.922Z,0.00
2018-05-12T02:01:57.003Z,0.00
2018-05-12T02:02:56.881Z,0.00
2018-05-12T02:04:50.031Z,0.00
2018-05-12T02:05:49.835Z,0.00
2018-05-12T02:07:43.004Z,0.00
2018-05-12T02:08:42.789Z,0.00
2018-05-12T02:10:35.738Z,0.00
2018-05-12T02:11:35.643Z,0.00
2018-05-12T02:13:28.795Z,0.00
2018-05-12T02:14:28.597Z,0.00
2018-05-12T02:16:21.759Z,0.00
2018-05-12T02:17:21.560Z,0.00
2018-05-12T02:19:14.704Z,0.00
2018-05-12T02:20:14.508Z,0.00
2018-05-12T02:22:07.660Z,0.00
2018-05-12T02:23:07.462Z,0.00
2018-05-12T02:25:00.617Z,0.00
2018-05-12T02:26:00.417Z,0.00
2018-05-12T02:27:53.571Z,0.00
2018-05-12T02:28:53.372Z,0.00
2018-05-12T02:30:46.531Z,0.00
2018-05-12T02:31:46.327Z,0.00
2018-05-12T02:33:39.480Z,0.00
2018-05-12T02:34:39.284Z,0.00
2018-05-12T02:36:32.438Z,0.00
2018-05-12T02:37:32.237Z,0.00
2018-05-12T02:39:25.438Z,0.00
2018-05-12T02:40:25.194Z,0.00
2018-05-12T02:42:18.353Z,0.00
2018-05-12T02:43:18.152Z,0.00
2018-05-12T02:45:11.213Z,0.00
2018-05-12T02:46:11.104Z,0.00
2018-05-12T02:48:04.156Z,0.00
2018-05-12T02:49:04.061Z,0.00
2018-05-12T02:50:57.134Z,0.00
2018-05-12T02:51:57.020Z,0.00
2018-05-12T02:53:49.969Z,0.00
2018-05-12T02:54:49.873Z,0.00
2018-05-12T02:56:42.822Z,0.00
2018-05-12T02:57:42.731Z,0.00
2018-05-12T02:59:35.673Z,0.00
2018-05-12T03:00:35.668Z,0.00
2018-05-12T03:02:28.527Z,0.00
2018-05-12T03:03:28.431Z,0.00
2018-05-12T03:05:21.380Z,0.00
2018-05-12T03:06:21.288Z,0.00
2018-05-12T03:08:14.334Z,0.00
2018-05-12T03:09:14.238Z,0.00
2018-05-12T03:11:07.293Z,0.00
2018-05-12T03:12:07.199Z,0.00
2018-05-12T03:14:00.147Z,0.00
2018-05-12T03:15:00.051Z,0.00
2018-05-12T03:16:53.098Z,0.00
2018-05-12T03:17:53.005Z,0.00
2018-05-12T03:19:46.055Z,0.00
2018-05-12T03:20:45.960Z,4.00
2018-05-12T03:22:39.009Z,0.00
2018-05-12T03:23:38.913Z,0.00
2018-05-12T03:25:31.964Z,0.00
2018-05-12T03:26:31.868Z,4.00
2018-05-12T03:28:24.922Z,4.00
2018-05-12T03:29:24.835Z,4.00
2018-05-12T03:31:17.871Z,4.00
2018-05-12T03:32:17.781Z,4.00
2018-05-12T03:34:10.830Z,8.00
2018-05-12T03:35:10.731Z,8.00
2018-05-12T03:37:03.888Z,12.00
2018-05-12T03:38:03.687Z,12.00
2018-05-12T03:39:56.851Z,16.00
2018-05-12T03:40:56.642Z,20.00
2018-05-12T03:42:49.704Z,24.00
2018-05-12T03:43:49.599Z,28.00
2018-05-12T03:45:42.762Z,32.00
2018-05-12T03:46:42.556Z,36.00
2018-05-12T03:48:35.711Z,40.00
2018-05-12T03:49:42.725Z,48.00
2018-05-12T03:51:28.500Z,56.00
2018-05-12T03:52:28.405Z,60.00
2018-05-12T03:54:21.352Z,64.00
2018-05-12T03:55:21.262Z,68.00
2018-05-12T03:57:14.203Z,76.00
2018-05-12T03:58:14.114Z,88.00
2018-05-12T04:00:07.082Z,96.00
2018-05-12T04:01:06.988Z,104.00
2018-05-12T04:02:59.949Z,116.00
2018-05-12T04:03:59.837Z,124.00
2018-05-12T04:05:52.889Z,132.00
2018-05-12T04:06:52.790Z,140.00
2018-05-12T04:08:45.849Z,152.00
2018-05-12T04:09:45.748Z,160.00
2018-05-12T04:11:38.798Z,172.00
2018-05-12T04:12:38.705Z,180.00
2018-05-12T04:14:31.756Z,192.00
2018-05-12T04:15:31.647Z,200.00
2018-05-12T04:17:24.711Z,208.00
2018-05-12T04:18:24.620Z,216.00
2018-05-12T04:20:17.665Z,228.00
2018-05-12T04:21:17.569Z,236.00
2018-05-12T04:23:10.627Z,252.00
2018-05-12T04:24:10.525Z,256.00
2018-05-12T04:26:03.577Z,268.00
2018-05-12T04:27:03.481Z,272.00
2018-05-12T04:28:56.636Z,280.00
2018-05-12T04:29:56.433Z,284.00
2018-05-12T04:31:49.488Z,292.00
2018-05-12T04:32:49.389Z,300.00
2018-05-12T04:34:42.546Z,308.00
2018-05-12T04:35:42.345Z,316.00
2018-05-12T04:37:35.500Z,336.00
2018-05-12T04:38:35.299Z,344.00
2018-05-12T04:40:28.457Z,356.00
2018-05-12T04:41:28.256Z,372.00
2018-05-12T04:43:21.504Z,388.00
2018-05-12T04:44:21.212Z,400.00
2018-05-12T04:46:14.165Z,416.00
2018-05-12T04:47:14.079Z,420.00
2018-05-12T04:49:07.024Z,432.00
2018-05-12T04:50:06.929Z,440.00
2018-05-12T04:51:59.873Z,448.00
2018-05-12T04:52:59.774Z,456.00
2018-05-12T04:54:52.723Z,468.00
2018-05-12T04:55:52.627Z,476.00
2018-05-12T04:57:45.578Z,500.00
2018-05-12T04:58:45.480Z,508.00
2018-05-12T05:00:38.431Z,532.00
2018-05-12T05:01:38.333Z,544.00
2018-05-12T05:03:31.285Z,556.00
2018-05-12T05:04:31.186Z,568.00
2018-05-12T05:06:24.139Z,580.00
2018-05-12T05:07:24.042Z,588.00
2018-05-12T05:09:16.996Z,600.00
2018-05-12T05:10:16.897Z,612.00
2018-05-12T05:12:09.843Z,636.00
2018-05-12T05:13:09.749Z,652.00
2018-05-12T05:15:03.209Z,680.00
2018-05-12T05:16:03.117Z,696.00
2018-05-12T05:17:56.065Z,732.00
2018-05-12T05:18:55.968Z,744.00
2018-05-12T05:20:48.919Z,764.00
2018-05-12T05:21:48.818Z,776.00
2018-05-12T05:23:41.768Z,808.00
2018-05-12T05:24:41.675Z,824.00
2018-05-12T05:26:34.629Z,856.00
2018-05-12T05:27:34.535Z,864.00
2018-05-12T05:29:27.479Z,888.00
2018-05-12T05:30:27.377Z,908.00
2018-05-12T05:32:20.331Z,936.00
2018-05-12T05:33:20.233Z,948.00
2018-05-12T05:35:13.243Z,980.00
2018-05-12T05:36:13.086Z,996.00
2018-05-12T05:38:06.033Z,1024.00
2018-05-12T05:39:05.936Z,1032.00
2018-05-12T05:40:58.916Z,1052.00
2018-05-12T05:41:58.788Z,1060.00
2018-05-12T05:43:51.737Z,1076.00
2018-05-12T05:44:51.643Z,1088.00
2018-05-12T05:46:44.592Z,1108.00
2018-05-12T05:47:44.496Z,1116.00
2018-05-12T05:49:37.443Z,1140.00
2018-05-12T05:50:37.356Z,1148.00
2018-05-12T05:52:30.296Z,1180.00
2018-05-12T05:53:30.204Z,1196.00
2018-05-12T05:55:23.148Z,1228.00
2018-05-12T05:56:23.058Z,1248.00
2018-05-12T05:58:15.996Z,1268.00
2018-05-12T05:59:15.908Z,1284.00
2018-05-12T06:01:08.857Z,1316.00
2018-05-12T06:02:08.760Z,1336.00
2018-05-12T06:04:01.647Z,1356.00
2018-05-12T06:05:01.692Z,1372.00
2018-05-12T06:06:54.658Z,1404.00
2018-05-12T06:07:54.471Z,1420.00
2018-05-12T06:09:47.425Z,1440.00
2018-05-12T06:10:47.329Z,1456.00
2018-05-12T06:12:40.267Z,1480.00
2018-05-12T06:13:40.176Z,1500.00
2018-05-12T06:15:33.122Z,1536.00
2018-05-12T06:16:33.030Z,1556.00
2018-05-12T06:18:25.975Z,1576.00
2018-05-12T06:19:26.043Z,1592.00
2018-05-12T06:21:18.931Z,1612.00
2018-05-12T06:22:18.837Z,1620.00
2018-05-12T06:24:11.821Z,1640.00
2018-05-12T06:25:11.791Z,1648.00
2018-05-12T06:27:04.838Z,1680.00
2018-05-12T06:28:04.746Z,1696.00
2018-05-12T06:30:03.279Z,1716.00
2018-05-12T06:30:57.663Z,1720.00
2018-05-12T06:32:50.600Z,1736.00
2018-05-12T06:33:50.515Z,1744.00
2018-05-12T06:35:44.985Z,1784.00
2018-05-12T06:36:44.900Z,1784.00
2018-05-12T06:38:37.840Z,1788.00
2018-05-12T06:39:37.760Z,1788.00
2018-05-12T06:41:30.687Z,1784.00
2018-05-12T06:42:30.604Z,1784.00
2018-05-12T06:44:23.724Z,1768.00
2018-05-12T06:45:23.706Z,1756.00
2018-05-12T06:47:16.518Z,1720.00
2018-05-12T06:48:16.482Z,1740.00
2018-05-12T06:50:09.635Z,1696.00
2018-05-12T06:51:09.617Z,1696.00
2018-05-12T06:53:02.590Z,1720.00
2018-05-12T06:54:02.392Z,1704.00
2018-05-12T06:55:55.545Z,1660.00
2018-05-12T06:56:55.351Z,1644.00
2018-05-12T06:58:48.505Z,1644.00
2018-05-12T06:59:48.305Z,1664.00
2018-05-12T07:01:41.459Z,1632.00
2018-05-12T07:02:41.262Z,1620.00
2018-05-12T07:04:34.417Z,1568.00
2018-05-12T07:05:34.287Z,1544.00
2018-05-12T07:07:27.371Z,1508.00
2018-05-12T07:08:27.178Z,1488.00
2018-05-12T07:10:20.332Z,1532.00
2018-05-12T07:11:20.125Z,1496.00
2018-05-12T07:13:13.284Z,1560.00
2018-05-12T07:14:13.086Z,1568.00
2018-05-12T07:16:06.239Z,1612.00
2018-05-12T07:17:06.041Z,1596.00
2018-05-12T07:18:59.091Z,1556.00
2018-05-12T07:19:58.995Z,1552.00
2018-05-12T07:20:59.076Z,1552.00
2018-05-12T07:21:58.954Z,1564.00
2018-05-12T07:22:58.992Z,1536.00
2018-05-12T07:23:58.919Z,1544.00
2018-05-12T07:24:59.001Z,1560.00
2018-05-12T07:25:58.871Z,1580.00
2018-05-12T07:26:58.914Z,1576.00
2018-05-12T07:27:58.828Z,1612.00
2018-05-12T07:28:58.932Z,1652.00
2018-05-12T07:29:58.790Z,1648.00
2018-05-12T07:30:58.839Z,1668.00
2018-05-12T07:31:58.748Z,1704.00
2018-05-12T07:32:58.854Z,1712.00
2018-05-12T07:33:58.709Z,1668.00
2018-05-12T07:34:58.765Z,1760.00
2018-05-12T07:35:58.668Z,1772.00
2018-05-12T07:36:58.779Z,1788.00
2018-05-12T07:37:58.628Z,1796.00
2018-05-12T07:38:58.709Z,1812.00
2018-05-12T07:39:58.589Z,1848.00
2018-05-12T07:40:58.708Z,1860.00
2018-05-12T07:41:58.545Z,1868.00
2018-05-12T07:42:58.619Z,1880.00
2018-05-12T07:43:58.508Z,1888.00
2018-05-12T07:44:58.532Z,1880.00
2018-05-12T07:45:58.465Z,1888.00
2018-05-12T07:46:58.567Z,1860.00
2018-05-12T07:47:58.424Z,1856.00
2018-05-12T07:48:58.456Z,1888.00
2018-05-12T07:49:58.395Z,1896.00
2018-05-12T07:50:58.468Z,1928.00
2018-05-12T07:51:58.344Z,1940.00
2018-05-12T07:52:58.382Z,1972.00
2018-05-12T07:53:58.306Z,2008.00
2018-05-12T07:54:58.396Z,2040.00
2018-05-12T07:55:58.269Z,2048.00
2018-05-12T07:56:58.393Z,2060.00
2018-05-12T07:57:58.226Z,2068.00
2018-05-12T07:58:58.210Z,2072.00
2018-05-12T07:59:58.186Z,2032.00
2018-05-12T08:00:58.232Z,2068.00
2018-05-12T08:01:58.151Z,2008.00
2018-05-12T08:02:58.247Z,2080.00
2018-05-12T08:03:58.109Z,2104.00
2018-05-12T08:04:58.156Z,2120.00
2018-05-12T08:05:58.069Z,2112.00
2018-05-12T08:06:58.171Z,2092.00
2018-05-12T08:07:58.037Z,2088.00
2018-05-12T08:08:58.082Z,2124.00
2018-05-12T08:09:57.991Z,2160.00
2018-05-12T08:10:58.095Z,2184.00
2018-05-12T08:11:57.959Z,2220.00
2018-05-12T08:12:58.009Z,2284.00
2018-05-12T08:13:57.913Z,2292.00
2018-05-12T08:14:58.026Z,2284.00
2018-05-12T08:15:57.875Z,2308.00
2018-05-12T08:16:57.946Z,2312.00
2018-05-12T08:17:57.840Z,2316.00
2018-05-12T08:18:57.946Z,2300.00
2018-05-12T08:19:57.801Z,2296.00
2018-05-12T08:20:57.864Z,2320.00
2018-05-12T08:21:57.760Z,2304.00
2018-05-12T08:22:57.881Z,2364.00
2018-05-12T08:23:57.737Z,2432.00
2018-05-12T08:24:57.786Z,2468.00
2018-05-12T08:25:57.743Z,2480.00
2018-05-12T08:26:57.862Z,2496.00
2018-05-12T08:27:57.648Z,2540.00
2018-05-12T08:28:57.816Z,2536.00
2018-05-12T08:29:57.609Z,2536.00
2018-05-12T08:30:57.726Z,2548.00
2018-05-12T08:31:57.572Z,2576.00
2018-05-12T08:32:57.651Z,2608.00
2018-05-12T08:33:57.532Z,2600.00
2018-05-12T08:34:57.652Z,2556.00
2018-05-12T08:35:57.498Z,2560.00
2018-05-12T08:36:57.563Z,2560.00
2018-05-12T08:37:57.458Z,2576.00
2018-05-12T08:38:57.577Z,2600.00
2018-05-12T08:39:57.422Z,2648.00
2018-05-12T08:40:57.430Z,2632.00
2018-05-12T08:41:57.380Z,2568.00
2018-05-12T08:42:57.403Z,2584.00
2018-05-12T08:43:57.351Z,2652.00
2018-05-12T08:44:57.517Z,2664.00
2018-05-12T08:45:57.316Z,2672.00
2018-05-12T08:46:57.431Z,2624.00
2018-05-12T08:47:57.275Z,2680.00
2018-05-12T08:48:57.443Z,2716.00
2018-05-12T08:49:57.237Z,2756.00
2018-05-12T08:50:57.271Z,2784.00
2018-05-12T08:51:57.205Z,2732.00
2018-05-12T08:52:57.287Z,2780.00
2018-05-12T08:53:57.164Z,2812.00
2018-05-12T08:54:57.194Z,2812.00
2018-05-12T08:55:57.131Z,2832.00
2018-05-12T08:56:57.136Z,2876.00
2018-05-12T08:57:57.111Z,2876.00
2018-05-12T08:58:57.078Z,2876.00
2018-05-12T08:59:57.193Z,2896.00
2018-05-12T09:00:57.044Z,2888.00
2018-05-12T09:01:57.137Z,2932.00
2018-05-12T09:02:57.011Z,2904.00
2018-05-12T09:03:57.047Z,2884.00
2018-05-12T09:04:57.007Z,2884.00
2018-05-12T09:05:57.984Z,2876.00
2018-05-12T09:06:56.937Z,2820.00
2018-05-12T09:07:56.968Z,2788.00
2018-05-12T09:08:56.904Z,2832.00
2018-05-12T09:09:56.983Z,2852.00
2018-05-12T09:10:56.869Z,2828.00
2018-05-12T09:11:56.891Z,2792.00
2018-05-12T09:12:56.929Z,2812.00
2018-05-12T09:13:56.907Z,2856.00
2018-05-12T09:14:56.898Z,2852.00
2018-05-12T09:15:56.820Z,2864.00
2018-05-12T09:16:56.756Z,2856.00
2018-05-12T09:17:56.831Z,2872.00
2018-05-12T09:18:56.735Z,2872.00
2018-05-12T09:19:56.716Z,2888.00
2018-05-12T09:20:56.702Z,2876.00
2018-05-12T09:21:56.749Z,2932.00
2018-05-12T09:22:56.665Z,2956.00
2018-05-12T09:23:56.760Z,2976.00
2018-05-12T09:24:56.634Z,2956.00
2018-05-12T09:25:56.675Z,2988.00
2018-05-12T09:26:56.590Z,2996.00
2018-05-12T09:27:56.684Z,2984.00
2018-05-12T09:28:56.569Z,2968.00
2018-05-12T09:29:56.595Z,3060.00
2018-05-12T09:30:56.534Z,3140.00
2018-05-12T09:31:56.606Z,3184.00
2018-05-12T09:32:56.507Z,3168.00
2018-05-12T09:33:56.517Z,3148.00
2018-05-12T09:34:56.471Z,3112.00
2018-05-12T09:35:56.529Z,3152.00
2018-05-12T09:36:56.440Z,3208.00
2018-05-12T09:37:56.441Z,3240.00
2018-05-12T09:38:56.406Z,3336.00
2018-05-12T09:39:56.451Z,3324.00
2018-05-12T09:40:56.375Z,3364.00
2018-05-12T09:41:56.464Z,3312.00
2018-05-12T09:42:56.344Z,3244.00
2018-05-12T09:43:56.374Z,3292.00
2018-05-12T09:44:56.359Z,3348.00
2018-05-12T09:45:56.388Z,3448.00
2018-05-12T09:46:56.284Z,3516.00
2018-05-12T09:47:56.297Z,3480.00
2018-05-12T09:48:56.251Z,3560.00
2018-05-12T09:49:56.309Z,3524.00
2018-05-12T09:50:56.220Z,3608.00
2018-05-12T09:51:56.321Z,3636.00
2018-05-12T09:52:56.193Z,3668.00
2018-05-12T09:53:56.234Z,3780.00
2018-05-12T09:54:56.164Z,3864.00
2018-05-12T09:55:57.167Z,3796.00
2018-05-12T09:56:56.130Z,3824.00
2018-05-12T09:57:57.181Z,3828.00
2018-05-12T09:58:56.102Z,3984.00
2018-05-12T09:59:56.166Z,4024.00
2018-05-12T10:00:56.076Z,4104.00
2018-05-12T10:01:56.077Z,4108.00
2018-05-12T10:02:56.045Z,4092.00
2018-05-12T10:03:56.089Z,4036.00
2018-05-12T10:04:56.016Z,4044.00
2018-05-12T10:05:56.101Z,4044.00
2018-05-12T10:06:55.987Z,4048.00
2018-05-12T10:07:56.012Z,4044.00
2018-05-12T10:08:55.958Z,4064.00
2018-05-12T10:09:56.026Z,4120.00
2018-05-12T10:10:55.931Z,4140.00
2018-05-12T10:11:55.936Z,4160.00
2018-05-12T10:12:56.075Z,4144.00
2018-05-12T10:13:55.946Z,4136.00
2018-05-12T10:14:55.875Z,4120.00
2018-05-12T10:15:55.965Z,4160.00
2018-05-12T10:16:55.848Z,4168.00
2018-05-12T10:17:55.871Z,4096.00
2018-05-12T10:18:55.820Z,4024.00
2018-05-12T10:19:55.890Z,3924.00
2018-05-12T10:20:55.800Z,3844.00
2018-05-12T10:21:55.794Z,3844.00
2018-05-12T10:22:55.768Z,3884.00
2018-05-12T10:23:55.808Z,3836.00
2018-05-12T10:24:55.739Z,3892.00
2018-05-12T10:25:55.823Z,4012.00
2018-05-12T10:26:55.712Z,4076.00
2018-05-12T10:27:55.732Z,4044.00
2018-05-12T10:28:55.694Z,4076.00
2018-05-12T10:29:55.744Z,4100.00
2018-05-12T10:30:55.662Z,4124.00
2018-05-12T10:31:55.758Z,4152.00
2018-05-12T10:32:55.637Z,4124.00
2018-05-12T10:33:55.667Z,4108.00
2018-05-12T10:34:55.610Z,4176.00
2018-05-12T10:35:55.680Z,4248.00
2018-05-12T10:36:55.593Z,4272.00
2018-05-12T10:37:55.586Z,4312.00
2018-05-12T10:38:55.607Z,4308.00
2018-05-12T10:39:55.605Z,4204.00
2018-05-12T10:40:55.535Z,4316.00
2018-05-12T10:41:55.609Z,4312.00
2018-05-12T10:42:55.510Z,4300.00
2018-05-12T10:43:55.519Z,4340.00
2018-05-12T10:44:55.580Z,4380.00
2018-05-12T10:45:55.533Z,4392.00
2018-05-12T10:46:55.461Z,4300.00
2018-05-12T10:47:55.546Z,4288.00
2018-05-12T10:48:55.434Z,4176.00
2018-05-12T10:49:55.456Z,4176.00
2018-05-12T10:50:55.420Z,4156.00
2018-05-12T10:51:55.468Z,4272.00
2018-05-12T10:52:55.383Z,3968.00
2018-05-12T10:53:55.480Z,4352.00
2018-05-12T10:54:55.359Z,4420.00
2018-05-12T10:55:55.390Z,4424.00
2018-05-12T10:56:55.350Z,4356.00
2018-05-12T10:57:55.403Z,4448.00
2018-05-12T10:58:55.310Z,4452.00
2018-05-12T10:59:56.338Z,4488.00
2018-05-12T11:00:55.287Z,4492.00
2018-05-12T11:01:55.329Z,4504.00
2018-05-12T11:02:55.258Z,4460.00
2018-05-12T11:03:55.343Z,4552.00
2018-05-12T11:04:55.240Z,4448.00
2018-05-12T11:05:55.249Z,4532.00
2018-05-12T11:06:55.225Z,4556.00
2018-05-12T11:07:55.265Z,4592.00
2018-05-12T11:08:55.189Z,4616.00
2018-05-12T11:09:55.273Z,4612.00
2018-05-12T11:10:55.164Z,4572.00
2018-05-12T11:11:55.185Z,4556.00
2018-05-12T11:12:55.140Z,4524.00
2018-05-12T11:13:55.195Z,4468.00
2018-05-12T11:14:55.117Z,4336.00
2018-05-12T11:15:55.245Z,4444.00
2018-05-12T11:16:55.091Z,4336.00
2018-05-12T11:17:55.127Z,4392.00
2018-05-12T11:18:55.069Z,4424.00
2018-05-12T11:19:55.132Z,4520.00
2018-05-12T11:20:55.050Z,4548.00
2018-05-12T11:21:55.273Z,4668.00
2018-05-12T11:22:55.026Z,4592.00
2018-05-12T11:23:55.055Z,4520.00
2018-05-12T11:24:54.996Z,4512.00
2018-05-12T11:25:55.069Z,4400.00
2018-05-12T11:26:54.975Z,4212.00
2018-05-12T11:27:54.982Z,4112.00
2018-05-12T11:28:54.953Z,4092.00
2018-05-12T11:29:54.937Z,3996.00
2018-05-12T11:30:54.992Z,4180.00
2018-05-12T11:31:54.918Z,4252.00
2018-05-12T11:32:55.017Z,4284.00
2018-05-12T11:33:54.896Z,4344.00
2018-05-12T11:34:54.880Z,4316.00
2018-05-12T11:35:54.878Z,4312.00
2018-05-12T11:36:54.943Z,4236.00
2018-05-12T11:37:54.845Z,4288.00
2018-05-12T11:38:54.961Z,4328.00
2018-05-12T11:39:54.838Z,4244.00
2018-05-12T11:40:54.877Z,4336.00
2018-05-12T11:41:54.802Z,4432.00
2018-05-12T11:42:54.882Z,4364.00
2018-05-12T11:43:54.779Z,4360.00
2018-05-12T11:44:54.895Z,4296.00
2018-05-12T11:45:54.761Z,4232.00
2018-05-12T11:46:54.809Z,4204.00
2018-05-12T11:47:54.740Z,4204.00
2018-05-12T11:48:54.824Z,4180.00
2018-05-12T11:49:54.714Z,4220.00
2018-05-12T11:50:54.836Z,4132.00
2018-05-12T11:51:54.690Z,4264.00
2018-05-12T11:52:54.747Z,4384.00
2018-05-12T11:53:54.678Z,4292.00
2018-05-12T11:54:59.685Z,4344.00
2018-05-12T11:55:54.642Z,4400.00
2018-05-12T11:56:54.794Z,4364.00
2018-05-12T11:57:54.623Z,4336.00
2018-05-12T11:58:54.700Z,4324.00
2018-05-12T11:59:54.602Z,4348.00
2018-05-12T12:00:54.715Z,4388.00
2018-05-12T12:01:54.577Z,4352.00
2018-05-12T12:02:54.629Z,4324.00
2018-05-12T12:03:54.564Z,4304.00
2018-05-12T12:04:54.641Z,4332.00
2018-05-12T12:05:54.537Z,4300.00
2018-05-12T12:06:54.654Z,4340.00
2018-05-12T12:07:54.514Z,4360.00
2018-05-12T12:08:54.565Z,4320.00
2018-05-12T12:09:54.490Z,4196.00
2018-05-12T12:10:54.572Z,4216.00
2018-05-12T12:11:54.467Z,4296.00
2018-05-12T12:12:54.491Z,4416.00
2018-05-12T12:13:54.444Z,4492.00
2018-05-12T12:14:54.516Z,4568.00
2018-05-12T12:15:54.421Z,4544.00
2018-05-12T12:16:54.534Z,4520.00
2018-05-12T12:17:54.396Z,4516.00
2018-05-12T12:18:54.544Z,4528.00
2018-05-12T12:19:54.377Z,4620.00
2018-05-12T12:20:54.385Z,4588.00
2018-05-12T12:21:54.360Z,4356.00
2018-05-12T12:22:54.462Z,4284.00
2018-05-12T12:23:54.331Z,4380.00
2018-05-12T12:24:54.474Z,4460.00
2018-05-12T12:25:54.308Z,4620.00
2018-05-12T12:26:54.386Z,4636.00
2018-05-12T12:27:54.289Z,4604.00
2018-05-12T12:28:54.399Z,4704.00
2018-05-12T12:29:54.266Z,4568.00
2018-05-12T12:30:54.413Z,4440.00
2018-05-12T12:31:54.246Z,4524.00
2018-05-12T12:32:54.324Z,4324.00
2018-05-12T12:33:54.221Z,4240.00
2018-05-12T12:34:54.342Z,4204.00
2018-05-12T12:35:54.200Z,4196.00
2018-05-12T12:36:54.358Z,4256.00
2018-05-12T12:37:54.180Z,4140.00
2018-05-12T12:38:54.270Z,4172.00
2018-05-12T12:39:54.160Z,4104.00
2018-05-12T12:40:54.282Z,4080.00
2018-05-12T12:41:54.134Z,4316.00
2018-05-12T12:42:54.299Z,4384.00
2018-05-12T12:43:54.115Z,4336.00
2018-05-12T12:44:54.208Z,4324.00
2018-05-12T12:45:54.091Z,4360.00
2018-05-12T12:46:54.230Z,4372.00
2018-05-12T12:47:54.079Z,4224.00
2018-05-12T12:48:54.235Z,4360.00
2018-05-12T12:49:54.056Z,4464.00
2018-05-12T12:50:54.150Z,4576.00
2018-05-12T12:51:54.027Z,4648.00
2018-05-12T12:52:54.163Z,4628.00
2018-05-12T12:53:54.007Z,4564.00
2018-05-12T12:54:54.180Z,4480.00
2018-05-12T12:55:53.986Z,5060.00
2018-05-12T12:56:54.091Z,4648.00
2018-05-12T12:57:53.957Z,4780.00
2018-05-12T12:58:54.106Z,4788.00
2018-05-12T12:59:53.941Z,5148.00
2018-05-12T13:00:54.117Z,4768.00
2018-05-12T13:01:53.918Z,4592.00
2018-05-12T13:02:54.029Z,5416.00
2018-05-12T13:03:53.898Z,5340.00
2018-05-12T13:04:54.135Z,5052.00
2018-05-12T13:05:53.884Z,5184.00
2018-05-12T13:06:54.057Z,4680.00
2018-05-12T13:07:53.857Z,4676.00
2018-05-12T13:08:54.991Z,4644.00
2018-05-12T13:09:53.833Z,4732.00
2018-05-12T13:10:53.994Z,4572.00
2018-05-12T13:11:53.817Z,4552.00
2018-05-12T13:12:53.996Z,4448.00
2018-05-12T13:13:53.869Z,4400.00
2018-05-12T13:14:53.905Z,4416.00
2018-05-12T13:15:53.819Z,4260.00
2018-05-12T13:16:53.919Z,4476.00
2018-05-12T13:17:53.766Z,4268.00
2018-05-12T13:18:53.837Z,4372.00
2018-05-12T13:19:53.739Z,4336.00
2018-05-12T13:20:53.748Z,4244.00
2018-05-12T13:21:53.719Z,4228.00
2018-05-12T13:22:53.759Z,4064.00
2018-05-12T13:23:53.705Z,4136.00
2018-05-12T13:24:53.773Z,4344.00
2018-05-12T13:25:53.677Z,4444.00
2018-05-12T13:26:53.689Z,4452.00
2018-05-12T13:27:53.749Z,4436.00
2018-05-12T13:28:53.695Z,4380.00
2018-05-12T13:29:53.639Z,4300.00
2018-05-12T13:30:53.711Z,4320.00
2018-05-12T13:31:53.619Z,3916.00
2018-05-12T13:32:53.607Z,4148.00
2018-05-12T13:33:54.766Z,4184.00
2018-05-12T13:34:53.585Z,3980.00
2018-05-12T13:35:53.676Z,3868.00
2018-05-12T13:36:53.580Z,3960.00
2018-05-12T13:37:53.562Z,3824.00
2018-05-12T13:38:53.585Z,3960.00
2018-05-12T13:39:53.567Z,3960.00
2018-05-12T13:40:53.615Z,3632.00
2018-05-12T13:41:53.542Z,3552.00
2018-05-12T13:42:53.530Z,3520.00
2018-05-12T13:43:53.499Z,3440.00
2018-05-12T13:44:53.578Z,3364.00
2018-05-12T13:45:53.479Z,3380.00
2018-05-12T13:46:53.557Z,3304.00
2018-05-12T13:47:53.464Z,3240.00
2018-05-12T13:48:53.571Z,3380.00
2018-05-12T13:49:53.434Z,3344.00
2018-05-12T13:50:54.506Z,3328.00
2018-05-12T13:51:53.415Z,3260.00
2018-05-12T13:52:53.499Z,3148.00
2018-05-12T13:53:53.388Z,3176.00
2018-05-12T13:54:53.470Z,3152.00
2018-05-12T13:55:53.503Z,3172.00
2018-05-12T13:56:53.519Z,3204.00
2018-05-12T13:57:53.357Z,3108.00
2018-05-12T13:58:53.436Z,3044.00
2018-05-12T13:59:53.338Z,3024.00
2018-05-12T14:00:53.347Z,3000.00
2018-05-12T14:01:53.342Z,2940.00
2018-05-12T14:02:53.365Z,2880.00
2018-05-12T14:03:53.317Z,2840.00
2018-05-12T14:04:53.376Z,2824.00
2018-05-12T14:05:53.302Z,2772.00
2018-05-12T14:06:53.290Z,2764.00
2018-05-12T14:07:53.252Z,2736.00
2018-05-12T14:08:53.301Z,2716.00
2018-05-12T14:09:53.228Z,2724.00
2018-05-12T14:10:53.316Z,2696.00
2018-05-12T14:11:53.220Z,2696.00
2018-05-12T14:12:53.226Z,2696.00
2018-05-12T14:13:53.193Z,2808.00
2018-05-12T14:14:53.244Z,2656.00
2018-05-12T14:15:53.164Z,2652.00
2018-05-12T14:16:53.255Z,2592.00